Archival Weather

Longyear

Longyear, Svalbard (ENSB)

Report from: Tuesday, September 19, 2023 6:50 PM UTC
Current time: Tuesday, July 16, 2024 3:38 PM UTC

Current weather – Weather history – Daily summaries
Weather forecast

Temperature-4.0°C (24.8°F)
Dew point-8.0°C (17.6°F)
Winds 2 kts (1 m/s, 2.3 mph) Vrb
Winds variableWinds variable
Clouds Sky clear
Altimeter30.03 in.Hg (1017 mB)
Relative humidity74 %
Density altitude-2,417 ft. (-737 m)
Remarks Ceiling and visibility OK
Flight conditions Visual Meteorological Conditions
Raw dataENSB 191850Z VRB02KT CAVOK M04/M08 Q1017 RMK WIND 1400FT VRB02KT
An error has occurred. This application may no longer respond until reloaded. Reload 🗙